Time;durP1;ratioP1;P1;durP2;ratioP2;P2;SDS_P1;SDS_P2;PMS_P1;PMS_P2;Temp;Humidity;BMP_temperature;BMP_pressure;BME280_temperature;BME280_humidity;BME280_pressure;Samples;Min_cycle;Max_cycle;Signal;HPM_P1;HPM_P2
2023/04/11 01:39:06;;;;;;;18.23;3.43;;;;;;;;;;4913979;28;21056;-91
2023/04/11 03:18:09;;;;;;;6.17;1.33;;;;;;;;;;4752965;30;21003;-94
2023/04/11 04:04:18;;;;;;;2.20;0.93;;;;;;;;;;4770366;30;20513;-92
2023/04/11 04:14:33;;;;;;;5.33;1.47;;;;;;;;;;4913764;29;20619;-93
2023/04/11 06:27:12;;;;;;;10.23;2.70;;;;;;;;;;4930381;29;20482;-89
2023/04/11 06:29:58;;;;;;;10.20;1.50;;;;;;;;;;4938234;29;20439;-91
2023/04/11 06:39:51;;;;;;;5.63;1.93;;;;;;;;;;4939076;29;20427;-92
2023/04/11 07:11:06;;;;;;;8.90;2.40;;;;;;;;;;4824288;29;20453;-89
2023/04/11 07:27:37;;;;;;;4.30;1.80;;;;;;;;;;4686089;30;20466;-95
2023/04/11 07:30:10;;;;;;;5.83;2.60;;;;;;;;;;4700086;30;20498;-94
2023/04/11 07:32:54;;;;;;;7.13;2.57;;;;;;;;;;4696829;30;20460;-93
2023/04/11 07:35:41;;;;;;;7.50;2.13;;;;;;;;;;4699511;30;20975;-91
2023/04/11 07:38:26;;;;;;;5.77;2.13;;;;;;;;;;4699779;30;20495;-88
2023/04/11 07:40:55;;;;;;;6.07;2.57;;;;;;;;;;4703483;30;20463;-87
2023/04/11 07:46:44;;;;;;;18.00;2.23;;;;;;;;;;4734692;30;20515;-93
2023/04/11 07:49:26;;;;;;;10.20;1.67;;;;;;;;;;4734048;30;20474;-89
2023/04/11 07:52:36;;;;;;;9.43;1.80;;;;;;;;;;4781727;29;20522;-89
2023/04/11 08:34:58;;;;;;;;;;;;;;;;;;;;;
2023/04/11 10:03:25;;;;;;;;;;;;;;;;;;;;;
2023/04/11 19:00:50;;;;;;;8.23;1.53;;;;;;;;;;4933075;29;20482;-87
2023/04/11 19:03:35;;;;;;;5.70;1.30;;;;;;;;;;4936601;29;20858;-87
2023/04/11 19:06:05;;;;;;;9.07;1.67;;;;;;;;;;4936077;29;20482;-88
2023/04/11 19:08:33;;;;;;;7.63;1.47;;;;;;;;;;4902111;29;20501;-86
2023/04/11 19:11:01;;;;;;;4.40;1.37;;;;;;;;;;4886331;29;20455;-87
2023/04/11 19:13:30;;;;;;;17.23;1.50;;;;;;;;;;4918428;29;20456;-87
2023/04/11 19:15:57;;;;;;;8.00;1.30;;;;;;;;;;4901196;29;20535;-85
2023/04/11 19:18:25;;;;;;;11.00;1.47;;;;;;;;;;4901100;29;20497;-87
2023/04/11 19:20:53;;;;;;;12.13;1.60;;;;;;;;;;4902338;29;20453;-87
2023/04/11 19:23:20;;;;;;;3.97;1.20;;;;;;;;;;4916778;29;20460;-89
2023/04/11 20:44:22;;;;;;;8.23;1.70;;;;;;;;;;4933720;29;20452;-86
2023/04/11 20:46:52;;;;;;;13.77;2.70;;;;;;;;;;4934061;29;20451;-86
2023/04/11 20:49:23;;;;;;;8.30;1.50;;;;;;;;;;4932806;29;20950;-86
2023/04/11 20:51:52;;;;;;;11.17;1.53;;;;;;;;;;4932392;29;20444;-86
2023/04/11 20:54:20;;;;;;;10.60;2.10;;;;;;;;;;4908430;29;20907;-86
2023/04/11 20:56:48;;;;;;;6.60;1.57;;;;;;;;;;4920233;29;20443;-86
2023/04/11 20:59:16;;;;;;;8.37;2.07;;;;;;;;;;4921274;29;20869;-86
2023/04/11 21:01:43;;;;;;;7.63;1.97;;;;;;;;;;4938175;29;20443;-87
2023/04/11 21:04:13;;;;;;;12.10;2.27;;;;;;;;;;4937781;29;20467;-86
2023/04/11 21:06:42;;;;;;;8.70;1.50;;;;;;;;;;4921329;29;20816;-86
2023/04/11 21:09:10;;;;;;;7.17;1.70;;;;;;;;;;4921017;29;20533;-85
2023/04/11 21:11:39;;;;;;;11.13;2.10;;;;;;;;;;4924713;29;20448;-86
2023/04/11 21:14:07;;;;;;;11.77;2.00;;;;;;;;;;4923265;29;20458;-87
2023/04/11 21:16:35;;;;;;;14.47;1.93;;;;;;;;;;4933702;29;20946;-86
2023/04/11 21:19:02;;;;;;;11.77;1.43;;;;;;;;;;4953522;28;20859;-86
2023/04/11 21:21:30;;;;;;;8.47;1.30;;;;;;;;;;4937736;29;20950;-86
2023/04/11 21:23:57;;;;;;;8.67;1.47;;;;;;;;;;4922161;29;20442;-86
2023/04/11 21:26:27;;;;;;;7.60;1.40;;;;;;;;;;4922570;29;20440;-87
2023/04/11 21:28:54;;;;;;;6.87;1.50;;;;;;;;;;4922096;29;20452;-87
2023/04/11 21:31:22;;;;;;;15.63;1.50;;;;;;;;;;4906931;29;20451;-86
2023/04/11 21:33:50;;;;;;;7.10;1.27;;;;;;;;;;4922291;29;20444;-87
2023/04/11 21:36:17;;;;;;;5.57;1.13;;;;;;;;;;4921835;29;20463;-87
2023/04/11 21:38:45;;;;;;;8.47;1.73;;;;;;;;;;4921729;29;20487;-86
2023/04/11 21:41:13;;;;;;;10.43;2.00;;;;;;;;;;4937629;29;20450;-87
2023/04/11 21:43:40;;;;;;;12.10;1.97;;;;;;;;;;4908980;29;20472;-87
2023/04/11 21:46:08;;;;;;;5.50;1.37;;;;;;;;;;4887604;29;20444;-87
2023/04/11 21:48:36;;;;;;;11.10;1.30;;;;;;;;;;4920551;29;20463;-87
2023/04/11 21:51:04;;;;;;;12.93;1.90;;;;;;;;;;4920548;29;20440;-87
2023/04/11 21:53:32;;;;;;;10.53;1.70;;;;;;;;;;4904811;29;20452;-86
2023/04/11 21:56:00;;;;;;;16.37;1.67;;;;;;;;;;4908385;29;20456;-86
2023/04/11 21:58:27;;;;;;;10.30;1.90;;;;;;;;;;4898954;29;21054;-86
2023/04/11 22:00:55;;;;;;;8.40;1.57;;;;;;;;;;4902896;29;20448;-87
2023/04/11 22:03:25;;;;;;;10.80;1.50;;;;;;;;;;4919539;29;20962;-86
2023/04/11 22:05:53;;;;;;;13.93;2.00;;;;;;;;;;4902324;29;20885;-87
2023/04/11 22:08:22;;;;;;;7.73;1.50;;;;;;;;;;4902327;29;20496;-87
2023/04/11 22:10:51;;;;;;;4.57;1.23;;;;;;;;;;4902987;29;20518;-87
2023/04/11 22:13:18;;;;;;;9.07;1.47;;;;;;;;;;4902655;29;20520;-86
2023/04/11 22:16:03;;;;;;;10.27;1.70;;;;;;;;;;4887007;29;20444;-87
2023/04/11 22:18:45;;;;;;;10.83;1.70;;;;;;;;;;4890900;29;20569;-85
2023/04/11 22:21:18;;;;;;;7.43;1.60;;;;;;;;;;4900129;29;20520;-86
2023/04/11 22:23:49;;;;;;;9.17;1.70;;;;;;;;;;4874692;29;20444;-86
2023/04/11 22:26:16;;;;;;;13.83;2.00;;;;;;;;;;4868472;29;20461;-86
2023/04/11 22:28:45;;;;;;;6.60;1.43;;;;;;;;;;4894425;29;20815;-86
2023/04/11 22:31:13;;;;;;;10.30;1.30;;;;;;;;;;4882527;29;20446;-86
2023/04/11 22:33:41;;;;;;;9.13;1.60;;;;;;;;;;4891563;29;20792;-86
2023/04/11 22:36:10;;;;;;;6.80;1.27;;;;;;;;;;4902011;29;20526;-86
2023/04/11 22:38:38;;;;;;;7.17;1.30;;;;;;;;;;4886840;29;20491;-86
2023/04/11 22:41:12;;;;;;;7.60;1.90;;;;;;;;;;4896569;29;20529;-86
2023/04/11 22:43:39;;;;;;;10.80;1.90;;;;;;;;;;4900627;29;20480;-86
2023/04/11 22:46:07;;;;;;;9.23;1.50;;;;;;;;;;4924553;29;20934;-85
2023/04/11 22:48:35;;;;;;;14.40;1.60;;;;;;;;;;4914145;29;20548;-86
2023/04/11 22:51:04;;;;;;;7.40;2.07;;;;;;;;;;4933517;29;20444;-86
2023/04/11 22:53:32;;;;;;;10.87;2.27;;;;;;;;;;4933205;29;20453;-86
2023/04/11 22:56:00;;;;;;;4.87;1.20;;;;;;;;;;4936169;29;20810;-86
2023/04/11 22:58:28;;;;;;;14.47;2.03;;;;;;;;;;4936387;29;20452;-86
2023/04/11 23:00:56;;;;;;;4.20;1.30;;;;;;;;;;4921120;29;20820;-85
2023/04/11 23:03:23;;;;;;;4.23;1.30;;;;;;;;;;4925968;28;20533;-85
2023/04/11 23:05:51;;;;;;;12.37;1.83;;;;;;;;;;4905824;29;20467;-86
2023/04/11 23:08:19;;;;;;;6.87;1.27;;;;;;;;;;4896301;28;20454;-86
2023/04/11 23:10:46;;;;;;;9.20;1.43;;;;;;;;;;4935280;29;21080;-87
2023/04/11 23:13:14;;;;;;;6.70;1.80;;;;;;;;;;4927756;29;20448;-85
2023/04/11 23:15:46;;;;;;;11.43;1.73;;;;;;;;;;4920369;29;20448;-86
2023/04/11 23:18:14;;;;;;;7.20;1.80;;;;;;;;;;4947269;29;20460;-86
2023/04/11 23:20:42;;;;;;;10.50;3.23;;;;;;;;;;4911890;29;21025;-85
2023/04/11 23:23:10;;;;;;;5.90;1.37;;;;;;;;;;4951835;28;20482;-85
2023/04/11 23:25:39;;;;;;;9.43;2.00;;;;;;;;;;4934256;29;20456;-85
2023/04/11 23:28:07;;;;;;;9.27;1.40;;;;;;;;;;4937131;29;20444;-85
2023/04/11 23:30:34;;;;;;;16.10;2.23;;;;;;;;;;4936357;29;20812;-86
2023/04/11 23:33:03;;;;;;;15.57;1.70;;;;;;;;;;4924469;29;20856;-86
2023/04/11 23:35:32;;;;;;;9.67;1.23;;;;;;;;;;4919967;29;20440;-86
2023/04/11 23:38:00;;;;;;;12.07;1.97;;;;;;;;;;4908710;29;20995;-85
2023/04/11 23:40:28;;;;;;;7.00;1.43;;;;;;;;;;4901052;29;20515;-86
2023/04/11 23:42:56;;;;;;;8.30;1.40;;;;;;;;;;4930836;29;20558;-86
2023/04/11 23:45:24;;;;;;;14.90;1.87;;;;;;;;;;4939270;29;20503;-86
2023/04/11 23:47:52;;;;;;;9.20;1.80;;;;;;;;;;4923240;29;20450;-87
2023/04/11 23:50:19;;;;;;;10.23;1.80;;;;;;;;;;4939277;29;20474;-86
2023/04/11 23:52:47;;;;;;;10.20;2.07;;;;;;;;;;4922988;29;20821;-85
2023/04/11 23:55:15;;;;;;;5.53;1.23;;;;;;;;;;4939096;29;20435;-85
2023/04/11 23:57:42;;;;;;;7.70;1.50;;;;;;;;;;4922978;28;20450;-87
